Nbp Island — V2FH3 — position and weather

sailwx.info

Track history (hours):
 
Tides and Currents Weather Stations Pressure Air Temp Water Temp Dewpoint Dewpoint Depression Visibility Wind Speed Wind Dir Waves Ship Positions

Nbp Island

Last reported at 2016-Aug-27 03:32 UTC. Time now 2016-Aug-27 04:41 UTC.
Position N 46°57' E 032°01'.

Length 107 m; draft 5.1 m.

Type: Cargo ship. MMSI: 305674000.

Date/timePositionNaut miles runAvg speedWind from/ knotsBaromVisibWave heightAir tempDewpointWater temp
2016-Aug-27 03:32N 46°57' E 032°01'0 0.0
2016-Aug-27 02:32N 46°57' E 032°01'0 0.0
2016-Aug-27 01:32N 46°57' E 032°01'0 0.0
2016-Aug-27 00:32N 46°57' E 032°01'0 0.1
2016-Aug-26 23:34N 46°57' E 032°01'6 5.6
2016-Aug-26 22:34N 46°51' E 031°58'10 9.9
2016-Aug-26 21:34N 46°42' E 031°56'21 9.6
2016-Aug-26 19:22N 46°35' E 031°27'911.4
2016-Aug-26 18:33N 46°35' E 031°13'1010.5
2016-Aug-26 17:34N 46°32' E 030°59'1111.0
2016-Aug-26 16:34N 46°21' E 030°57'8 7.4
2016-Aug-26 15:33N 46°14' E 031°01'32510.1
2016-Aug-25 07:17N 41°01' E 028°60'5 5.8
2016-Aug-25 06:24N 40°56' E 028°58'246 8.8
2016-Aug-24 02:26N 38°24' E 024°47'46 8.8
2016-Aug-23 21:16N 37°40' E 024°31'1910.0
2016-Aug-23 19:20N 37°28' E 024°12'1011.4
2016-Aug-23 18:28N 37°25' E 024°00'5 0.3
2016-Aug-23 03:31N 37°27' E 023°55'0 0.1
2016-Aug-23 02:04N 37°27' E 023°55'0 0.0
2016-Aug-22 23:28N 37°27' E 023°55'0 0.0
2016-Aug-22 22:31N 37°27' E 023°55'0 0.0
2016-Aug-22 21:31N 37°27' E 023°55'0 0.0
2016-Aug-22 20:31N 37°27' E 023°55'0 0.0
2016-Aug-22 19:31N 37°27' E 023°55'0 0.0
2016-Aug-22 18:31N 37°27' E 023°55'0 0.0
2016-Aug-22 17:28N 37°27' E 023°55'0 0.0
2016-Aug-22 16:28N 37°27' E 023°55'0 0.0
2016-Aug-22 15:28N 37°27' E 023°55'0 0.0
2016-Aug-22 14:31N 37°28' E 023°55'0 0.0
2016-Aug-22 13:31N 37°28' E 023°55'0 0.0
2016-Aug-22 12:31N 37°28' E 023°55'0 0.1
2016-Aug-22 11:31N 37°27' E 023°55'0 0.0
2016-Aug-22 09:22N 37°27' E 023°55'0 0.0
2016-Aug-22 07:25N 37°27' E 023°55'0 0.0
2016-Aug-22 05:28N 37°27' E 023°55'0 0.0
2016-Aug-22 04:22N 37°27' E 023°55'0 0.0
2016-Aug-22 03:16N 37°27' E 023°55'0 0.0
2016-Aug-22 02:31N 37°27' E 023°55'0 0.0
2016-Aug-22 01:31N 37°27' E 023°55'0 0.0
2016-Aug-22 00:22N 37°27' E 023°55'0 0.0
2016-Aug-21 23:31N 37°27' E 023°55'0 0.0
2016-Aug-21 03:31N 37°27' E 023°55'0 0.0
2016-Aug-20 05:31N 37°27' E 023°55'0 0.0
2016-Aug-20 03:31N 37°27' E 023°55'0 0.0
2016-Aug-20 02:16N 37°27' E 023°55'0 0.0
2016-Aug-20 01:31N 37°27' E 023°55'0 0.0
2016-Aug-20 00:31N 37°27' E 023°55'0 0.1
2016-Aug-19 23:31N 37°27' E 023°55'0 0.0
2016-Aug-19 22:28N 37°27' E 023°55'0 0.0
2016-Aug-19 20:31N 37°28' E 023°55'0 0.0
2016-Aug-19 19:19N 37°28' E 023°55'0 0.0
2016-Aug-19 18:28N 37°28' E 023°55'0 0.0
2016-Aug-19 17:31N 37°27' E 023°55'0 0.0
2016-Aug-19 16:31N 37°27' E 023°55'0 0.0
2016-Aug-19 15:31N 37°28' E 023°55'0 0.0
2016-Aug-19 04:31N 37°27' E 023°55'0 0.0
2016-Aug-19 03:13N 37°27' E 023°55'0 0.0
2016-Aug-19 02:31N 37°27' E 023°55'0 0.0
2016-Aug-19 01:31N 37°27' E 023°55'0 0.1
2016-Aug-19 00:31N 37°28' E 023°55'0 0.1
2016-Aug-18 23:31N 37°27' E 023°55'0 0.0
2016-Aug-18 22:31N 37°27' E 023°55'0 0.0
2016-Aug-18 21:31N 37°27' E 023°55'0 0.0
2016-Aug-18 20:31N 37°27' E 023°55'0 0.0
2016-Aug-18 19:31N 37°27' E 023°55'0 0.0
2016-Aug-18 18:31N 37°27' E 023°55'0 0.0
2016-Aug-18 17:25N 37°27' E 023°55'0 0.0
2016-Aug-18 16:31N 37°27' E 023°55'0 0.0
2016-Aug-18 15:31N 37°27' E 023°55'0 0.0
2016-Aug-18 14:31N 37°28' E 023°55'0 0.1
2016-Aug-18 13:31N 37°27' E 023°55'0 0.0
2016-Aug-18 12:31N 37°27' E 023°55'0 0.1
2016-Aug-18 11:31N 37°27' E 023°55'0 0.0
2016-Aug-18 09:13N 37°27' E 023°55'0 0.0
2016-Aug-18 08:25N 37°27' E 023°55'0 0.0
2016-Aug-18 07:31N 37°27' E 023°55'0 0.0
2016-Aug-18 03:25N 37°27' E 023°55'0 0.0
2016-Aug-18 02:31N 37°27' E 023°55'0 0.0
2016-Aug-18 01:22N 37°27' E 023°55'0 0.1
2016-Aug-18 00:31N 37°28' E 023°55'0 0.1
2016-Aug-17 23:31N 37°28' E 023°55'0 0.0
2016-Aug-17 22:28N 37°28' E 023°55'0 0.0
2016-Aug-17 21:31N 37°28' E 023°55'0 0.0
2016-Aug-17 20:31N 37°28' E 023°55'0 0.1
2016-Aug-17 19:28N 37°28' E 023°55'0 0.1
2016-Aug-17 18:31N 37°27' E 023°55'0 0.0
2016-Aug-17 17:31N 37°27' E 023°55'0 0.0
2016-Aug-17 16:31N 37°27' E 023°55'0 0.0
2016-Aug-17 15:19N 37°27' E 023°55'0 0.1
2016-Aug-17 13:31N 37°27' E 023°55'0 0.0
2016-Aug-17 12:22N 37°27' E 023°55'0 0.0
2016-Aug-17 11:22N 37°27' E 023°55'0 0.0
2016-Aug-17 10:22N 37°27' E 023°55'0 0.0
2016-Aug-17 08:25N 37°27' E 023°55'  
Track history (hours):
 
Tides and Currents Weather Stations Pressure Air Temp Water Temp Dewpoint Dewpoint Depression Visibility Wind Speed Wind Dir Waves Ship Positions

Nbp Island

Last reported at 2016-Aug-27 03:32 UTC. Time now 2016-Aug-27 04:41 UTC.
Position N 46°57' E 032°01'.

Length 107 m; draft 5.1 m.

Type: Cargo ship. MMSI: 305674000.

Date/timePositionNaut miles runAvg speedWind from/ knotsBaromVisibWave heightAir tempDewpointWater temp
2016-Aug-27 03:32N 46°57' E 032°01'0 0.0
2016-Aug-27 02:32N 46°57' E 032°01'0 0.0
2016-Aug-27 01:32N 46°57' E 032°01'0 0.0
2016-Aug-27 00:32N 46°57' E 032°01'0 0.1
2016-Aug-26 23:34N 46°57' E 032°01'6 5.6
2016-Aug-26 22:34N 46°51' E 031°58'10 9.9
2016-Aug-26 21:34N 46°42' E 031°56'21 9.6
2016-Aug-26 19:22N 46°35' E 031°27'911.4
2016-Aug-26 18:33N 46°35' E 031°13'1010.5
2016-Aug-26 17:34N 46°32' E 030°59'1111.0
2016-Aug-26 16:34N 46°21' E 030°57'8 7.4
2016-Aug-26 15:33N 46°14' E 031°01'32510.1
2016-Aug-25 07:17N 41°01' E 028°60'5 5.8
2016-Aug-25 06:24N 40°56' E 028°58'246 8.8
2016-Aug-24 02:26N 38°24' E 024°47'46 8.8
2016-Aug-23 21:16N 37°40' E 024°31'1910.0
2016-Aug-23 19:20N 37°28' E 024°12'1011.4
2016-Aug-23 18:28N 37°25' E 024°00'5 0.3
2016-Aug-23 03:31N 37°27' E 023°55'0 0.1
2016-Aug-23 02:04N 37°27' E 023°55'0 0.0
2016-Aug-22 23:28N 37°27' E 023°55'0 0.0
2016-Aug-22 22:31N 37°27' E 023°55'0 0.0
2016-Aug-22 21:31N 37°27' E 023°55'0 0.0
2016-Aug-22 20:31N 37°27' E 023°55'0 0.0
2016-Aug-22 19:31N 37°27' E 023°55'0 0.0
2016-Aug-22 18:31N 37°27' E 023°55'0 0.0
2016-Aug-22 17:28N 37°27' E 023°55'0 0.0
2016-Aug-22 16:28N 37°27' E 023°55'0 0.0
2016-Aug-22 15:28N 37°27' E 023°55'0 0.0
2016-Aug-22 14:31N 37°28' E 023°55'0 0.0
2016-Aug-22 13:31N 37°28' E 023°55'0 0.0
2016-Aug-22 12:31N 37°28' E 023°55'0 0.1
2016-Aug-22 11:31N 37°27' E 023°55'0 0.0
2016-Aug-22 09:22N 37°27' E 023°55'0 0.0
2016-Aug-22 07:25N 37°27' E 023°55'0 0.0
2016-Aug-22 05:28N 37°27' E 023°55'0 0.0
2016-Aug-22 04:22N 37°27' E 023°55'0 0.0
2016-Aug-22 03:16N 37°27' E 023°55'0 0.0
2016-Aug-22 02:31N 37°27' E 023°55'0 0.0
2016-Aug-22 01:31N 37°27' E 023°55'0 0.0
2016-Aug-22 00:22N 37°27' E 023°55'0 0.0
2016-Aug-21 23:31N 37°27' E 023°55'0 0.0
2016-Aug-21 03:31N 37°27' E 023°55'0 0.0
2016-Aug-20 05:31N 37°27' E 023°55'0 0.0
2016-Aug-20 03:31N 37°27' E 023°55'0 0.0
2016-Aug-20 02:16N 37°27' E 023°55'0 0.0
2016-Aug-20 01:31N 37°27' E 023°55'0 0.0
2016-Aug-20 00:31N 37°27' E 023°55'0 0.1
2016-Aug-19 23:31N 37°27' E 023°55'0 0.0
2016-Aug-19 22:28N 37°27' E 023°55'0 0.0
2016-Aug-19 20:31N 37°28' E 023°55'0 0.0
2016-Aug-19 19:19N 37°28' E 023°55'0 0.0
2016-Aug-19 18:28N 37°28' E 023°55'0 0.0
2016-Aug-19 17:31N 37°27' E 023°55'0 0.0
2016-Aug-19 16:31N 37°27' E 023°55'0 0.0
2016-Aug-19 15:31N 37°28' E 023°55'0 0.0
2016-Aug-19 04:31N 37°27' E 023°55'0 0.0
2016-Aug-19 03:13N 37°27' E 023°55'0 0.0
2016-Aug-19 02:31N 37°27' E 023°55'0 0.0
2016-Aug-19 01:31N 37°27' E 023°55'0 0.1
2016-Aug-19 00:31N 37°28' E 023°55'0 0.1
2016-Aug-18 23:31N 37°27' E 023°55'0 0.0
2016-Aug-18 22:31N 37°27' E 023°55'0 0.0
2016-Aug-18 21:31N 37°27' E 023°55'0 0.0
2016-Aug-18 20:31N 37°27' E 023°55'0 0.0
2016-Aug-18 19:31N 37°27' E 023°55'0 0.0
2016-Aug-18 18:31N 37°27' E 023°55'0 0.0
2016-Aug-18 17:25N 37°27' E 023°55'0 0.0
2016-Aug-18 16:31N 37°27' E 023°55'0 0.0
2016-Aug-18 15:31N 37°27' E 023°55'0 0.0
2016-Aug-18 14:31N 37°28' E 023°55'0 0.1
2016-Aug-18 13:31N 37°27' E 023°55'0 0.0
2016-Aug-18 12:31N 37°27' E 023°55'0 0.1
2016-Aug-18 11:31N 37°27' E 023°55'0 0.0
2016-Aug-18 09:13N 37°27' E 023°55'0 0.0
2016-Aug-18 08:25N 37°27' E 023°55'0 0.0
2016-Aug-18 07:31N 37°27' E 023°55'0 0.0
2016-Aug-18 03:25N 37°27' E 023°55'0 0.0
2016-Aug-18 02:31N 37°27' E 023°55'0 0.0
2016-Aug-18 01:22N 37°27' E 023°55'0 0.1
2016-Aug-18 00:31N 37°28' E 023°55'0 0.1
2016-Aug-17 23:31N 37°28' E 023°55'0 0.0
2016-Aug-17 22:28N 37°28' E 023°55'0 0.0
2016-Aug-17 21:31N 37°28' E 023°55'0 0.0
2016-Aug-17 20:31N 37°28' E 023°55'0 0.1
2016-Aug-17 19:28N 37°28' E 023°55'0 0.1
2016-Aug-17 18:31N 37°27' E 023°55'0 0.0
2016-Aug-17 17:31N 37°27' E 023°55'0 0.0
2016-Aug-17 16:31N 37°27' E 023°55'0 0.0
2016-Aug-17 15:19N 37°27' E 023°55'0 0.1
2016-Aug-17 13:31N 37°27' E 023°55'0 0.0
2016-Aug-17 12:22N 37°27' E 023°55'0 0.0
2016-Aug-17 11:22N 37°27' E 023°55'0 0.0
2016-Aug-17 10:22N 37°27' E 023°55'0 0.0
2016-Aug-17 08:25N 37°27' E 023°55'  

Dump ship's entire track history